Time,TemperatureF,DewpointF,PressureIn,WindDirection,WindDirectionDegrees,WindSpeedMPH,WindSpeedGustMPH,Humidity,HourlyPrecipIn,Conditions,Clouds,dailyrainin,SoftwareType,DateUTC
2013-01-05 00:00:00,27.1,16.6,30.18,South,180,4.0,4.0,64,0.00,CLR,,0.00,WeatherDisplay:10.37,2013-01-05 05:00:00,
2013-01-05 00:02:00,27.1,16.6,30.18,South,180,4.0,4.0,64,0.00,CLR,,0.00,WeatherDisplay:10.37,2013-01-05 05:02:00,
2013-01-05 00:07:00,27.1,16.6,30.18,South,180,0.0,0.0,64,0.00,CLR,,0.00,WeatherDisplay:10.37,2013-01-05 05:07:00,
2013-01-05 00:12:00,27.5,16.9,30.17,South,180,0.0,0.0,64,0.00,CLR,,0.00,WeatherDisplay:10.37,2013-01-05 05:12:00,
2013-01-05 00:17:00,27.5,16.9,30.17,South,180,0.0,0.0,64,0.00,CLR,,0.00,WeatherDisplay:10.37,2013-01-05 05:17:00,
2013-01-05 00:22:00,27.3,16.7,30.18,SW,225,3.8,3.8,64,0.00,CLR,,0.00,WeatherDisplay:10.37,2013-01-05 05:22:00,
2013-01-05 00:27:00,27.3,16.7,30.18,SW,225,6.0,6.0,64,0.00,CLR,,0.00,WeatherDisplay:10.37,2013-01-05 05:27:00,
2013-01-05 00:32:00,27.3,16.7,30.17,SW,225,6.0,6.0,64,0.00,CLR,,0.00,WeatherDisplay:10.37,2013-01-05 05:32:00,
2013-01-05 00:37:00,27.7,17.1,30.18,SW,225,5.8,6.9,64,0.00,CLR,,0.00,WeatherDisplay:10.37,2013-01-05 05:37:00,
2013-01-05 00:42:00,27.7,17.1,30.18,SW,225,6.7,6.9,64,0.00,CLR,,0.00,WeatherDisplay:10.37,2013-01-05 05:42:00,
2013-01-05 00:47:00,28.8,18.1,30.18,SSW,202,2.2,2.3,64,0.00,CLR,,0.00,WeatherDisplay:10.37,2013-01-05 05:47:00,
2013-01-05 00:52:00,28.9,17.9,30.18,SSW,202,0.2,0.0,63,0.00,CLR,,0.00,WeatherDisplay:10.37,2013-01-05 05:52:00,
2013-01-05 00:57:00,28.8,17.7,30.18,SSW,202,0.0,0.0,63,0.00,CLR,,0.00,WeatherDisplay:10.37,2013-01-05 05:57:00,
2013-01-05 01:02:00,28.8,17.7,30.18,SSW,202,3.8,3.8,63,0.00,CLR,,0.00,WeatherDisplay:10.37,2013-01-05 06:02:00,
2013-01-05 01:07:00,28.0,17.1,30.18,SSW,202,0.0,0.0,63,0.00,CLR,,0.00,WeatherDisplay:10.37,2013-01-05 06:07:00,
2013-01-05 01:12:00,27.7,16.7,30.18,SSW,202,0.0,0.0,63,0.00,CLR,,0.00,WeatherDisplay:10.37,2013-01-05 06:12:00,
2013-01-05 01:17:00,27.5,16.9,30.18,SSW,202,0.0,0.0,64,0.00,CLR,,0.00,WeatherDisplay:10.37,2013-01-05 06:17:00,
2013-01-05 01:22:00,27.5,16.9,30.18,SSW,202,0.0,0.0,64,0.00,CLR,,0.00,WeatherDisplay:10.37,2013-01-05 06:22:00,
2013-01-05 01:27:00,27.5,16.9,30.18,South,180,3.4,3.5,64,0.00,CLR,,0.00,WeatherDisplay:10.37,2013-01-05 06:27:00,
2013-01-05 01:32:00,27.5,16.9,30.19,SSW,202,0.0,0.0,64,0.00,CLR,,0.00,WeatherDisplay:10.37,2013-01-05 06:32:00,
2013-01-05 01:37:00,27.1,16.6,30.19,SSW,202,0.0,0.0,64,0.00,CLR,,0.00,WeatherDisplay:10.37,2013-01-05 06:37:00,
2013-01-05 01:42:00,27.0,16.4,30.19,SSW,202,0.0,0.0,64,0.00,CLR,,0.00,WeatherDisplay:10.37,2013-01-05 06:42:00,
2013-01-05 01:47:00,26.6,16.1,30.19,SSW,202,0.0,0.0,64,0.00,CLR,,0.00,WeatherDisplay:10.37,2013-01-05 06:47:00,
2013-01-05 01:52:00,26.4,15.9,30.19,SSW,202,0.0,0.0,64,0.00,CLR,,0.00,WeatherDisplay:10.37,2013-01-05 06:52:00,
2013-01-05 01:57:00,26.4,15.9,30.19,SSW,202,0.0,0.0,64,0.00,CLR,,0.00,WeatherDisplay:10.37,2013-01-05 06:57:00,
2013-01-05 02:02:00,26.4,15.9,30.19,SSW,202,0.0,0.0,64,0.00,CLR,,0.00,WeatherDisplay:10.37,2013-01-05 07:02:00,
2013-01-05 02:07:00,25.9,15.4,30.20,SSW,202,0.0,0.0,64,0.00,CLR,,0.00,WeatherDisplay:10.37,2013-01-05 07:07:00,
2013-01-05 02:12:00,25.5,15.4,30.20,SW,225,0.0,0.0,65,0.00,CLR,,0.00,WeatherDisplay:10.37,2013-01-05 07:12:00,
2013-01-05 02:17:00,25.3,15.2,30.20,NNW,338,0.0,0.0,65,0.00,CLR,,0.00,WeatherDisplay:10.37,2013-01-05 07:17:00,
2013-01-05 02:22:00,25.2,15.4,30.21,NNW,338,0.0,0.0,66,0.00,CLR,,0.00,WeatherDisplay:10.37,2013-01-05 07:22:00,
2013-01-05 02:27:00,25.0,15.2,30.21,SSW,202,0.0,0.0,66,0.00,CLR,,0.00,WeatherDisplay:10.37,2013-01-05 07:27:00,
2013-01-05 02:32:00,25.2,15.4,30.22,SSW,202,0.0,0.0,66,0.00,CLR,,0.00,WeatherDisplay:10.37,2013-01-05 07:32:00,
2013-01-05 02:37:00,25.2,15.4,30.22,SSW,202,0.0,0.0,66,0.00,CLR,,0.00,WeatherDisplay:10.37,2013-01-05 07:37:00,
2013-01-05 02:42:00,25.2,15.4,30.22,SSW,202,0.0,0.0,66,0.00,CLR,,0.00,WeatherDisplay:10.37,2013-01-05 07:42:00,
2013-01-05 02:47:00,25.2,15.4,30.22,SSW,202,0.0,0.0,66,0.00,CLR,,0.00,WeatherDisplay:10.37,2013-01-05 07:47:00,
2013-01-05 02:52:00,25.0,15.2,30.22,SSW,202,0.0,0.0,66,0.00,CLR,,0.00,WeatherDisplay:10.37,2013-01-05 07:52:00,
2013-01-05 02:57:00,25.0,15.6,30.23,SSW,202,2.5,3.5,67,0.00,CLR,,0.00,WeatherDisplay:10.37,2013-01-05 07:57:00,
2013-01-05 03:02:00,25.0,15.6,30.23,SSW,202,0.0,0.0,67,0.00,CLR,,0.00,WeatherDisplay:10.37,2013-01-05 08:02:00,
2013-01-05 03:07:00,25.0,15.6,30.23,SSW,202,0.0,0.0,67,0.00,CLR,,0.00,WeatherDisplay:10.37,2013-01-05 08:07:00,
2013-01-05 03:12:00,25.0,15.6,30.23,SSW,202,0.0,0.0,67,0.00,CLR,,0.00,WeatherDisplay:10.37,2013-01-05 08:12:00,
2013-01-05 03:17:00,24.8,15.4,30.23,SSW,202,0.0,0.0,67,0.00,CLR,,0.00,WeatherDisplay:10.37,2013-01-05 08:17:00,
2013-01-05 03:22:00,24.6,15.2,30.23,SSW,202,0.0,0.0,67,0.00,CLR,,0.00,WeatherDisplay:10.37,2013-01-05 08:22:00,
2013-01-05 03:27:00,24.4,15.0,30.23,SSW,202,0.0,0.0,67,0.00,CLR,,0.00,WeatherDisplay:10.37,2013-01-05 08:27:00,
2013-01-05 03:32:00,24.4,15.0,30.23,SSW,202,0.0,0.0,67,0.00,CLR,,0.00,WeatherDisplay:10.37,2013-01-05 08:32:00,
2013-01-05 03:37:00,24.1,14.7,30.23,SSW,202,0.0,0.0,67,0.00,CLR,,0.00,WeatherDisplay:10.37,2013-01-05 08:37:00,
2013-01-05 03:42:00,23.9,14.5,30.23,SSW,202,0.0,0.0,67,0.00,CLR,,0.00,WeatherDisplay:10.37,2013-01-05 08:42:00,
2013-01-05 03:47:00,23.7,14.4,30.24,SSW,202,0.0,0.0,67,0.00,CLR,,0.00,WeatherDisplay:10.37,2013-01-05 08:47:00,
2013-01-05 03:52:00,23.5,14.2,30.24,SSW,202,0.0,0.0,67,0.00,CLR,,0.00,WeatherDisplay:10.37,2013-01-05 08:52:00,
2013-01-05 03:57:00,23.5,14.2,30.23,SSE,158,0.0,0.0,67,0.00,CLR,,0.00,WeatherDisplay:10.37,2013-01-05 08:57:00,
2013-01-05 04:02:00,23.4,14.4,30.23,SSE,158,0.0,0.0,68,0.00,CLR,,0.00,WeatherDisplay:10.37,2013-01-05 09:02:00,
2013-01-05 04:07:00,23.4,14.4,30.23,SSE,158,0.0,0.0,68,0.00,CLR,,0.00,WeatherDisplay:10.37,2013-01-05 09:07:00,
2013-01-05 04:12:00,23.4,14.7,30.24,SSE,158,0.0,0.0,69,0.00,CLR,,0.00,WeatherDisplay:10.37,2013-01-05 09:12:00,
2013-01-05 04:17:00,23.4,14.7,30.24,SSE,158,0.0,0.0,69,0.00,CLR,,0.00,WeatherDisplay:10.37,2013-01-05 09:17:00,
2013-01-05 04:23:00,23.4,14.7,30.24,SSE,158,0.0,0.0,69,0.00,CLR,,0.00,WeatherDisplay:10.37,2013-01-05 09:23:00,
2013-01-05 04:27:00,23.2,14.5,30.24,SSE,158,0.0,0.0,69,0.00,CLR,,0.00,WeatherDisplay:10.37,2013-01-05 09:27:00,
2013-01-05 04:33:00,23.2,14.5,30.24,SSE,158,0.0,0.0,69,0.00,CLR,,0.00,WeatherDisplay:10.37,2013-01-05 09:33:00,
2013-01-05 04:38:00,23.0,14.3,30.24,SSE,158,0.0,0.0,69,0.00,CLR,,0.00,WeatherDisplay:10.37,2013-01-05 09:38:00,
2013-01-05 04:43:00,22.8,14.2,30.24,SSE,158,0.0,0.0,69,0.00,CLR,,0.00,WeatherDisplay:10.37,2013-01-05 09:43:00,
2013-01-05 04:48:00,22.8,14.2,30.24,SSE,158,0.0,0.0,69,0.00,CLR,,0.00,WeatherDisplay:10.37,2013-01-05 09:48:00,
2013-01-05 04:53:00,22.8,14.2,30.24,SSE,158,0.0,0.0,69,0.00,CLR,,0.00,WeatherDisplay:10.37,2013-01-05 09:53:00,
2013-01-05 04:58:00,22.6,14.0,30.25,SSE,158,0.0,0.0,69,0.00,CLR,,0.00,WeatherDisplay:10.37,2013-01-05 09:58:00,
2013-01-05 05:03:00,22.6,14.0,30.25,SSE,158,0.0,0.0,69,0.00,CLR,,0.00,WeatherDisplay:10.37,2013-01-05 10:03:00,
2013-01-05 05:08:00,22.3,13.6,30.25,SSE,158,0.0,0.0,69,0.00,CLR,,0.00,WeatherDisplay:10.37,2013-01-05 10:08:00,
2013-01-05 05:13:00,22.3,13.6,30.25,SSE,158,0.0,0.0,69,0.00,CLR,,0.00,WeatherDisplay:10.37,2013-01-05 10:13:00,
2013-01-05 05:18:00,22.1,13.8,30.26,SSE,158,0.0,0.0,70,0.00,CLR,,0.00,WeatherDisplay:10.37,2013-01-05 10:18:00,
2013-01-05 05:23:00,21.9,13.6,30.26,SSE,158,0.0,0.0,70,0.00,CLR,,0.00,WeatherDisplay:10.37,2013-01-05 10:23:00,
2013-01-05 05:28:00,21.9,13.6,30.26,SSE,158,0.0,0.0,70,0.00,CLR,,0.00,WeatherDisplay:10.37,2013-01-05 10:28:00,
2013-01-05 05:33:00,21.9,13.6,30.27,SSE,158,0.0,0.0,70,0.00,CLR,,0.00,WeatherDisplay:10.37,2013-01-05 10:33:00,
2013-01-05 05:38:00,21.9,13.6,30.27,SSW,202,0.0,0.0,70,0.00,CLR,,0.00,WeatherDisplay:10.37,2013-01-05 10:38:00,
2013-01-05 05:43:00,21.7,13.5,30.27,SSW,202,0.0,0.0,70,0.00,CLR,,0.00,WeatherDisplay:10.37,2013-01-05 10:43:00,
2013-01-05 05:48:00,21.7,13.5,30.27,SSW,202,0.0,0.0,70,0.00,CLR,,0.00,WeatherDisplay:10.37,2013-01-05 10:48:00,
2013-01-05 05:53:00,21.7,13.5,30.27,SSW,202,0.0,0.0,70,0.00,CLR,,0.00,WeatherDisplay:10.37,2013-01-05 10:53:00,
2013-01-05 05:58:00,21.7,13.5,30.28,SSW,202,0.0,0.0,70,0.00,CLR,,0.00,WeatherDisplay:10.37,2013-01-05 10:58:00,
2013-01-05 06:03:00,21.6,13.3,30.27,SSW,202,0.0,0.0,70,0.00,CLR,,0.00,WeatherDisplay:10.37,2013-01-05 11:03:00,
2013-01-05 06:08:00,21.6,13.6,30.27,SSW,202,0.0,0.0,71,0.00,CLR,,0.00,WeatherDisplay:10.37,2013-01-05 11:08:00,
2013-01-05 06:13:00,21.6,13.6,30.27,SSW,202,2.2,2.3,71,0.00,CLR,,0.00,WeatherDisplay:10.37,2013-01-05 11:13:00,
2013-01-05 06:18:00,21.6,13.6,30.27,SSW,202,0.0,0.0,71,0.00,CLR,,0.00,WeatherDisplay:10.37,2013-01-05 11:18:00,
2013-01-05 06:23:00,21.4,13.4,30.27,SSW,202,0.0,0.0,71,0.00,CLR,,0.00,WeatherDisplay:10.37,2013-01-05 11:23:00,
2013-01-05 06:28:00,21.4,13.4,30.27,SSW,202,0.0,0.0,71,0.00,CLR,,0.00,WeatherDisplay:10.37,2013-01-05 11:28:00,
2013-01-05 06:33:00,21.4,13.4,30.27,SSW,202,0.0,0.0,71,0.00,CLR,,0.00,WeatherDisplay:10.37,2013-01-05 11:33:00,
2013-01-05 06:38:00,21.4,13.4,30.27,SSW,202,0.0,0.0,71,0.00,CLR,,0.00,WeatherDisplay:10.37,2013-01-05 11:38:00,
2013-01-05 06:43:00,21.4,13.4,30.27,SSW,202,0.0,0.0,71,0.00,CLR,,0.00,WeatherDisplay:10.37,2013-01-05 11:43:00,
2013-01-05 06:48:00,21.0,13.4,30.27,SSW,202,0.0,0.0,72,0.00,CLR,,0.00,WeatherDisplay:10.37,2013-01-05 11:48:00,
2013-01-05 06:53:00,21.0,13.4,30.27,SSW,202,0.0,0.0,72,0.00,CLR,,0.00,WeatherDisplay:10.37,2013-01-05 11:53:00,
2013-01-05 06:58:00,21.0,13.4,30.27,SSW,202,0.0,0.0,72,0.00,CLR,,0.00,WeatherDisplay:10.37,2013-01-05 11:58:00,
2013-01-05 07:03:00,21.0,13.4,30.27,SSW,202,0.0,0.0,72,0.00,CLR,,0.00,WeatherDisplay:10.37,2013-01-05 12:03:00,
2013-01-05 07:08:00,21.2,13.6,30.27,SSW,202,0.0,0.0,72,0.00,CLR,,0.00,WeatherDisplay:10.37,2013-01-05 12:08:00,
2013-01-05 07:13:00,21.2,13.6,30.27,SSW,202,0.0,0.0,72,0.00,CLR,,0.00,WeatherDisplay:10.37,2013-01-05 12:13:00,
2013-01-05 07:18:00,21.2,13.6,30.28,SSW,202,0.0,0.0,72,0.00,CLR,,0.00,WeatherDisplay:10.37,2013-01-05 12:18:00,
2013-01-05 07:23:00,21.0,13.4,30.28,SSW,202,0.0,0.0,72,0.00,CLR,,0.00,WeatherDisplay:10.37,2013-01-05 12:23:00,
2013-01-05 07:28:00,21.0,13.4,30.29,SSW,202,0.0,0.0,72,0.00,CLR,,0.00,WeatherDisplay:10.37,2013-01-05 12:28:00,
2013-01-05 07:33:00,21.0,13.4,30.29,SSW,202,0.0,0.0,72,0.00,CLR,,0.00,WeatherDisplay:10.37,2013-01-05 12:33:00,
2013-01-05 07:38:00,21.0,13.4,30.29,SSW,202,0.0,0.0,72,0.00,CLR,,0.00,WeatherDisplay:10.37,2013-01-05 12:38:00,
2013-01-05 07:43:00,20.8,13.2,30.29,SSW,202,0.0,0.0,72,0.00,CLR,,0.00,WeatherDisplay:10.37,2013-01-05 12:43:00,
2013-01-05 07:48:00,20.8,13.2,30.29,SSW,202,0.0,0.0,72,0.00,CLR,,0.00,WeatherDisplay:10.37,2013-01-05 12:48:00,
2013-01-05 07:53:00,20.8,13.2,30.30,SSW,202,0.0,0.0,72,0.00,CLR,,0.00,WeatherDisplay:10.37,2013-01-05 12:53:00,
2013-01-05 07:58:00,20.8,13.5,30.31,SSW,202,0.0,0.0,73,0.00,CLR,,0.00,WeatherDisplay:10.37,2013-01-05 12:58:00,
2013-01-05 08:03:00,20.8,13.5,30.30,SSW,202,0.0,0.0,73,0.00,CLR,,0.00,WeatherDisplay:10.37,2013-01-05 13:03:00,
2013-01-05 08:08:00,20.8,13.5,30.30,SSW,202,0.0,0.0,73,0.00,CLR,,0.00,WeatherDisplay:10.37,2013-01-05 13:08:00,
2013-01-05 08:13:00,21.0,13.7,30.31,SSW,202,0.0,0.0,73,0.00,CLR,,0.00,WeatherDisplay:10.37,2013-01-05 13:13:00,
2013-01-05 08:18:00,21.0,13.7,30.30,SSW,202,0.0,0.0,73,0.00,CLR,,0.00,WeatherDisplay:10.37,2013-01-05 13:18:00,
2013-01-05 08:23:00,21.0,13.7,30.31,SSW,202,0.0,0.0,73,0.00,CLR,,0.00,WeatherDisplay:10.37,2013-01-05 13:23:00,
2013-01-05 08:28:00,21.4,14.1,30.31,SSW,202,0.0,0.0,73,0.00,CLR,,0.00,WeatherDisplay:10.37,2013-01-05 13:28:00,
2013-01-05 08:33:00,21.7,14.4,30.31,SSW,202,0.0,0.0,73,0.00,CLR,,0.00,WeatherDisplay:10.37,2013-01-05 13:33:00,
2013-01-05 08:38:00,21.7,14.4,30.31,SSW,202,0.0,0.0,73,0.00,CLR,,0.00,WeatherDisplay:10.37,2013-01-05 13:38:00,
2013-01-05 08:43:00,21.9,14.6,30.31,SSW,202,0.0,0.0,73,0.00,CLR,,0.00,WeatherDisplay:10.37,2013-01-05 13:43:00,
2013-01-05 08:48:00,22.3,14.9,30.32,SSW,202,0.0,0.0,73,0.00,CLR,,0.00,WeatherDisplay:10.37,2013-01-05 13:48:00,
2013-01-05 08:53:00,22.5,15.1,30.31,SSW,202,0.0,0.0,73,0.00,CLR,,0.00,WeatherDisplay:10.37,2013-01-05 13:53:00,
2013-01-05 08:58:00,22.8,15.8,30.32,SSW,202,0.0,0.0,74,0.00,CLR,,0.00,WeatherDisplay:10.37,2013-01-05 13:58:00,
2013-01-05 09:03:00,23.5,16.5,30.31,SSW,202,0.0,0.0,74,0.00,CLR,,0.00,WeatherDisplay:10.37,2013-01-05 14:03:00,
2013-01-05 09:08:00,23.7,16.6,30.31,SSW,202,0.0,0.0,74,0.00,CLR,,0.00,WeatherDisplay:10.37,2013-01-05 14:08:00,
2013-01-05 09:14:00,24.1,17.0,30.31,SSW,202,0.0,0.0,74,0.00,CLR,,0.00,WeatherDisplay:10.37,2013-01-05 14:14:00,
2013-01-05 09:19:00,25.0,17.9,30.31,SSW,202,0.0,0.0,74,0.00,CLR,,0.00,WeatherDisplay:10.37,2013-01-05 14:19:00,
2013-01-05 09:24:00,25.0,17.9,30.31,SSW,202,0.0,0.0,74,0.00,CLR,,0.00,WeatherDisplay:10.37,2013-01-05 14:24:00,
2013-01-05 09:29:00,25.7,18.6,30.32,SSW,202,0.0,0.0,74,0.00,CLR,,0.00,WeatherDisplay:10.37,2013-01-05 14:29:00,
2013-01-05 09:34:00,25.7,18.6,30.32,SSW,202,0.0,0.0,74,0.00,CLR,,0.00,WeatherDisplay:10.37,2013-01-05 14:34:00,
2013-01-05 09:39:00,25.7,18.6,30.32,SSW,204,0.0,0.0,74,0.00,CLR,,0.00,WeatherDisplay:10.37,2013-01-05 14:39:00,
2013-01-05 09:44:00,25.7,18.6,30.34,SSW,204,0.0,0.0,74,0.00,CLR,,0.00,WeatherDisplay:10.37,2013-01-05 14:44:00,
2013-01-05 09:49:00,31.3,24.0,30.34,SSW,204,0.0,0.0,74,0.00,CLR,,0.00,WeatherDisplay:10.37,2013-01-05 14:49:00,
2013-01-05 09:54:00,31.3,24.0,30.34,SW,225,0.7,1.1,74,0.00,CLR,,0.00,WeatherDisplay:10.37,2013-01-05 14:54:00,
2013-01-05 09:59:00,31.3,21.6,30.34,SW,225,0.7,1.1,67,0.00,CLR,,0.00,WeatherDisplay:10.37,2013-01-05 14:59:00,
2013-01-05 10:04:00,31.3,21.6,30.34,SW,225,0.7,1.1,67,0.00,CLR,,0.00,WeatherDisplay:10.37,2013-01-05 15:04:00,
2013-01-05 10:09:00,31.3,21.6,30.34,SW,225,0.7,1.1,67,0.00,CLR,,0.00,WeatherDisplay:10.37,2013-01-05 15:09:00,
2013-01-05 10:14:00,34.5,23.2,30.35,SSW,202,0.0,0.0,63,0.00,CLR,,0.00,WeatherDisplay:10.37,2013-01-05 15:14:00,
2013-01-05 10:19:00,34.5,23.2,30.35,SSW,202,0.0,0.0,63,0.00,CLR,,0.00,WeatherDisplay:10.37,2013-01-05 15:19:00,
2013-01-05 10:24:00,34.5,23.2,30.34,South,180,0.0,0.0,63,0.00,CLR,,0.00,WeatherDisplay:10.37,2013-01-05 15:24:00,
2013-01-05 10:29:00,34.5,23.2,30.34,South,180,0.0,0.0,63,0.00,CLR,,0.00,WeatherDisplay:10.37,2013-01-05 15:29:00,
2013-01-05 10:34:00,36.5,25.1,30.34,South,180,0.0,0.0,63,0.00,CLR,,0.00,WeatherDisplay:10.37,2013-01-05 15:34:00,
2013-01-05 10:39:00,36.5,25.1,30.34,South,180,0.0,0.0,63,0.00,CLR,,0.00,WeatherDisplay:10.37,2013-01-05 15:39:00,
2013-01-05 10:44:00,36.5,25.1,30.34,South,180,0.0,0.0,63,0.00,CLR,,0.00,WeatherDisplay:10.37,2013-01-05 15:44:00,
2013-01-05 10:49:00,36.5,25.1,30.34,South,180,0.0,0.0,63,0.00,CLR,,0.00,WeatherDisplay:10.37,2013-01-05 15:49:00,
2013-01-05 10:54:00,36.5,25.1,30.33,South,181,0.0,0.0,63,0.00,CLR,,0.00,WeatherDisplay:10.37,2013-01-05 15:54:00,
2013-01-05 10:59:00,36.5,25.1,30.33,South,181,0.0,0.0,63,0.00,CLR,,0.00,WeatherDisplay:10.37,2013-01-05 15:59:00,
2013-01-05 11:04:00,36.5,25.1,30.33,South,181,0.0,0.0,63,0.00,CLR,,0.00,WeatherDisplay:10.37,2013-01-05 16:04:00,
2013-01-05 11:09:00,36.5,25.1,30.33,South,181,0.0,0.0,63,0.00,CLR,,0.00,WeatherDisplay:10.37,2013-01-05 16:09:00,
2013-01-05 11:14:00,36.5,25.1,30.33,South,181,0.0,0.0,63,0.00,CLR,,0.00,WeatherDisplay:10.37,2013-01-05 16:14:00,
2013-01-05 11:19:00,36.5,25.1,30.33,South,181,0.0,0.0,63,0.00,CLR,,0.00,WeatherDisplay:10.37,2013-01-05 16:19:00,
2013-01-05 11:24:00,36.5,25.1,30.33,South,181,0.0,0.0,63,0.00,CLR,,0.00,WeatherDisplay:10.37,2013-01-05 16:24:00,
2013-01-05 11:29:00,36.5,25.1,30.33,South,181,0.0,0.0,63,0.00,CLR,,0.00,WeatherDisplay:10.37,2013-01-05 16:29:00,
2013-01-05 11:34:00,36.5,25.1,30.32,South,181,0.0,0.0,63,0.00,CLR,,0.00,WeatherDisplay:10.37,2013-01-05 16:34:00,
2013-01-05 11:39:00,36.5,25.1,30.32,South,181,0.0,0.0,63,0.00,CLR,,0.00,WeatherDisplay:10.37,2013-01-05 16:39:00,
2013-01-05 11:44:00,36.5,25.1,30.32,South,181,0.0,0.0,63,0.00,CLR,,0.00,WeatherDisplay:10.37,2013-01-05 16:44:00,
2013-01-05 11:49:00,36.5,25.1,30.32,South,181,0.0,0.0,63,0.00,CLR,,0.00,WeatherDisplay:10.37,2013-01-05 16:49:00,
2013-01-05 11:54:00,36.5,25.1,30.32,South,181,0.0,0.0,63,0.00,CLR,,0.00,WeatherDisplay:10.37,2013-01-05 16:54:00,
2013-01-05 11:59:00,36.5,25.1,30.32,South,181,0.0,0.0,63,0.00,CLR,,0.00,WeatherDisplay:10.37,2013-01-05 16:59:00,
2013-01-05 12:04:00,36.5,25.1,30.31,South,181,0.0,0.0,63,0.00,CLR,,0.00,WeatherDisplay:10.37,2013-01-05 17:04:00,
2013-01-05 12:09:00,36.5,25.1,30.32,South,181,0.0,0.0,63,0.00,CLR,,0.00,WeatherDisplay:10.37,2013-01-05 17:09:00,
2013-01-05 12:14:00,36.5,25.1,30.31,South,181,0.0,0.0,63,0.00,CLR,,0.00,WeatherDisplay:10.37,2013-01-05 17:14:00,
2013-01-05 12:19:00,36.5,25.1,30.31,South,181,0.0,0.0,63,0.00,CLR,,0.00,WeatherDisplay:10.37,2013-01-05 17:19:00,
2013-01-05 12:24:00,36.5,25.1,30.30,South,181,0.0,0.0,63,0.00,CLR,,0.00,WeatherDisplay:10.37,2013-01-05 17:24:00,
2013-01-05 12:29:00,36.5,25.1,30.29,South,181,0.0,0.0,63,0.00,CLR,,0.00,WeatherDisplay:10.37,2013-01-05 17:29:00,
2013-01-05 12:34:00,36.5,25.1,30.29,South,181,0.0,0.0,63,0.00,CLR,,0.00,WeatherDisplay:10.37,2013-01-05 17:34:00,
2013-01-05 12:39:00,36.5,25.1,30.29,South,181,0.0,0.0,63,0.00,CLR,,0.00,WeatherDisplay:10.37,2013-01-05 17:39:00,
2013-01-05 12:44:00,36.5,25.1,30.28,South,181,0.0,0.0,63,0.00,CLR,,0.00,WeatherDisplay:10.37,2013-01-05 17:44:00,
2013-01-05 12:49:00,36.5,25.1,30.27,South,181,0.0,0.0,63,0.00,CLR,,0.00,WeatherDisplay:10.37,2013-01-05 17:49:00,
2013-01-05 12:54:00,36.5,25.1,30.27,South,181,0.0,0.0,63,0.00,CLR,,0.00,WeatherDisplay:10.37,2013-01-05 17:54:00,
2013-01-05 12:59:00,36.5,25.1,30.27,South,181,0.0,0.0,63,0.00,CLR,,0.00,WeatherDisplay:10.37,2013-01-05 17:59:00,
2013-01-05 13:04:00,36.5,25.1,30.27,South,181,0.0,0.0,63,0.00,CLR,,0.00,WeatherDisplay:10.37,2013-01-05 18:04:00,
2013-01-05 13:09:00,36.5,25.1,30.27,South,181,0.0,0.0,63,0.00,CLR,,0.00,WeatherDisplay:10.37,2013-01-05 18:09:00,
2013-01-05 13:14:00,36.5,25.1,30.27,South,181,0.0,0.0,63,0.00,CLR,,0.00,WeatherDisplay:10.37,2013-01-05 18:14:00,
2013-01-05 13:19:00,36.5,25.1,30.27,South,181,0.0,0.0,63,0.00,CLR,,0.00,WeatherDisplay:10.37,2013-01-05 18:19:00,
2013-01-05 13:24:00,36.5,25.1,30.26,South,181,0.0,0.0,63,0.00,CLR,,0.00,WeatherDisplay:10.37,2013-01-05 18:24:00,
2013-01-05 13:29:00,36.5,25.1,30.26,South,181,0.0,0.0,63,0.00,CLR,,0.00,WeatherDisplay:10.37,2013-01-05 18:29:00,
2013-01-05 13:34:00,36.5,25.1,30.26,South,181,0.0,0.0,63,0.00,CLR,,0.00,WeatherDisplay:10.37,2013-01-05 18:34:00,
2013-01-05 13:39:00,36.5,25.1,30.25,South,181,0.0,0.0,63,0.00,CLR,,0.00,WeatherDisplay:10.37,2013-01-05 18:39:00,
2013-01-05 13:44:00,36.5,25.1,30.26,South,181,0.0,0.0,63,0.00,CLR,,0.00,WeatherDisplay:10.37,2013-01-05 18:44:00,
2013-01-05 13:49:00,36.5,25.1,30.26,South,181,0.0,0.0,63,0.00,CLR,,0.00,WeatherDisplay:10.37,2013-01-05 18:49:00,
2013-01-05 13:54:00,36.5,25.1,30.26,South,181,0.0,0.0,63,0.00,CLR,,0.00,WeatherDisplay:10.37,2013-01-05 18:54:00,
2013-01-05 13:59:00,36.5,25.1,30.25,South,181,0.0,0.0,63,0.00,CLR,,0.00,WeatherDisplay:10.37,2013-01-05 18:59:00,
2013-01-05 14:04:00,36.5,25.1,30.25,South,181,0.0,0.0,63,0.00,CLR,,0.00,WeatherDisplay:10.37,2013-01-05 19:04:00,
2013-01-05 14:09:00,36.5,25.1,30.25,South,181,0.0,0.0,63,0.00,CLR,,0.00,WeatherDisplay:10.37,2013-01-05 19:09:00,
2013-01-05 14:14:00,36.5,25.1,30.25,South,181,0.0,0.0,63,0.00,CLR,,0.00,WeatherDisplay:10.37,2013-01-05 19:14:00,
2013-01-05 14:19:00,36.5,25.1,30.25,South,181,0.0,0.0,63,0.00,CLR,,0.00,WeatherDisplay:10.37,2013-01-05 19:19:00,
2013-01-05 14:24:00,36.5,25.1,30.25,South,181,0.0,0.0,63,0.00,CLR,,0.00,WeatherDisplay:10.37,2013-01-05 19:24:00,
2013-01-05 14:29:00,36.5,25.1,30.25,South,181,0.0,0.0,63,0.00,CLR,,0.00,WeatherDisplay:10.37,2013-01-05 19:29:00,
2013-01-05 14:34:00,36.5,25.1,30.25,South,181,0.0,0.0,63,0.00,CLR,,0.00,WeatherDisplay:10.37,2013-01-05 19:34:00,
2013-01-05 14:39:00,36.5,25.1,30.25,South,181,0.0,0.0,63,0.00,CLR,,0.00,WeatherDisplay:10.37,2013-01-05 19:39:00,
2013-01-05 14:44:00,36.5,25.1,30.25,South,181,0.0,0.0,63,0.00,CLR,,0.00,WeatherDisplay:10.37,2013-01-05 19:44:00,
2013-01-05 14:49:00,36.5,25.1,30.25,South,181,0.0,0.0,63,0.00,CLR,,0.00,WeatherDisplay:10.37,2013-01-05 19:49:00,
2013-01-05 14:54:00,36.5,25.1,30.24,South,181,0.0,0.0,63,0.00,CLR,,0.00,WeatherDisplay:10.37,2013-01-05 19:54:00,
2013-01-05 15:00:00,36.5,25.1,30.25,South,181,0.0,0.0,63,0.00,CLR,,0.00,WeatherDisplay:10.37,2013-01-05 20:00:00,
2013-01-05 15:05:00,36.5,25.1,30.24,South,181,0.0,0.0,63,0.00,CLR,,0.00,WeatherDisplay:10.37,2013-01-05 20:05:00,
2013-01-05 15:10:00,36.5,25.1,30.24,South,181,0.0,0.0,63,0.00,CLR,CLR,0.00,WeatherDisplay:10.37,2013-01-05 20:10:00,
2013-01-05 15:15:00,36.5,25.1,30.24,South,181,0.0,0.0,63,0.00,CLR,CLR,0.00,WeatherDisplay:10.37,2013-01-05 20:15:00,
2013-01-05 15:20:00,36.5,25.1,30.24,South,181,0.0,0.0,63,0.00,CLR,,0.00,WeatherDisplay:10.37,2013-01-05 20:20:00,
2013-01-05 15:25:00,36.5,25.1,30.24,South,181,0.0,0.0,63,0.00,CLR,CLR,0.00,WeatherDisplay:10.37,2013-01-05 20:25:00,
2013-01-05 15:30:00,36.5,25.1,30.24,South,181,0.0,0.0,63,0.00,CLR,,0.00,WeatherDisplay:10.37,2013-01-05 20:30:00,
2013-01-05 15:35:00,36.5,25.1,30.24,South,181,0.0,0.0,63,0.00,CLR,CLR,0.00,WeatherDisplay:10.37,2013-01-05 20:35:00,
2013-01-05 15:40:00,36.5,25.1,30.24,South,181,0.0,0.0,63,0.00,CLR,,0.00,WeatherDisplay:10.37,2013-01-05 20:40:00,
2013-01-05 15:45:00,36.5,25.1,30.24,South,181,0.0,0.0,63,0.00,CLR,,0.00,WeatherDisplay:10.37,2013-01-05 20:45:00,
2013-01-05 15:50:00,36.5,25.1,30.24,South,181,0.0,0.0,63,0.00,CLR,,0.00,WeatherDisplay:10.37,2013-01-05 20:50:00,
2013-01-05 15:55:00,36.5,25.1,30.24,South,181,0.0,0.0,63,0.00,CLR,CLR,0.00,WeatherDisplay:10.37,2013-01-05 20:55:00,
2013-01-05 16:00:00,36.5,25.1,30.24,South,181,0.0,0.0,63,0.00,CLR,,0.00,WeatherDisplay:10.37,2013-01-05 21:00:00,
2013-01-05 16:05:00,36.5,25.1,30.24,South,181,0.0,0.0,63,0.00,CLR,CLR,0.00,WeatherDisplay:10.37,2013-01-05 21:05:00,
2013-01-05 16:10:00,36.5,25.1,30.24,South,181,0.0,0.0,63,0.00,CLR,,0.00,WeatherDisplay:10.37,2013-01-05 21:10:00,
2013-01-05 16:15:00,36.5,25.1,30.24,South,181,0.0,0.0,63,0.00,CLR,,0.00,WeatherDisplay:10.37,2013-01-05 21:15:00,
2013-01-05 16:20:00,36.5,25.1,30.24,South,181,0.0,0.0,63,0.00,CLR,CLR,0.00,WeatherDisplay:10.37,2013-01-05 21:20:00,
2013-01-05 16:25:00,36.5,25.1,30.23,South,181,0.0,0.0,63,0.00,CLR,CLR,0.00,WeatherDisplay:10.37,2013-01-05 21:25:00,
2013-01-05 16:30:00,36.5,25.1,30.23,South,181,0.0,0.0,63,0.00,CLR,,0.00,WeatherDisplay:10.37,2013-01-05 21:30:00,
2013-01-05 16:35:00,36.5,25.1,30.23,South,181,0.0,0.0,63,0.00,CLR,,0.00,WeatherDisplay:10.37,2013-01-05 21:35:00,
2013-01-05 16:40:00,36.5,25.1,30.23,South,181,0.0,0.0,63,0.00,CLR,,0.00,WeatherDisplay:10.37,2013-01-05 21:40:00,
2013-01-05 16:45:00,36.5,25.1,30.23,South,181,0.0,0.0,63,0.00,CLR,,0.00,WeatherDisplay:10.37,2013-01-05 21:45:00,
2013-01-05 16:50:00,36.5,25.1,30.23,South,181,0.0,0.0,63,0.00,CLR,CLR,0.00,WeatherDisplay:10.37,2013-01-05 21:50:00,
2013-01-05 16:55:00,36.5,25.1,30.23,South,181,0.0,0.0,63,0.00,CLR,,0.00,WeatherDisplay:10.37,2013-01-05 21:55:00,
2013-01-05 17:00:00,36.5,25.1,30.22,South,181,0.0,0.0,63,0.00,CLR,CLR,0.00,WeatherDisplay:10.37,2013-01-05 22:00:00,
2013-01-05 17:05:00,36.5,25.1,30.22,South,181,0.0,0.0,63,0.00,CLR,CLR,0.00,WeatherDisplay:10.37,2013-01-05 22:05:00,
2013-01-05 17:10:00,36.5,25.1,30.23,South,181,0.0,0.0,63,0.00,CLR,,0.00,WeatherDisplay:10.37,2013-01-05 22:10:00,
2013-01-05 17:15:00,36.5,25.1,30.22,South,181,0.0,0.0,63,0.00,CLR,CLR,0.00,WeatherDisplay:10.37,2013-01-05 22:15:00,
2013-01-05 17:20:00,36.5,25.1,30.22,South,181,0.0,0.0,63,0.00,CLR,,0.00,WeatherDisplay:10.37,2013-01-05 22:20:00,
2013-01-05 17:25:00,36.5,25.1,30.22,South,181,0.0,0.0,63,0.00,CLR,,0.00,WeatherDisplay:10.37,2013-01-05 22:25:00,
2013-01-05 17:30:00,36.5,25.1,30.22,South,181,0.0,0.0,63,0.00,CLR,CLR,0.00,WeatherDisplay:10.37,2013-01-05 22:30:00,
2013-01-05 17:35:00,36.5,25.1,30.22,South,181,0.0,0.0,63,0.00,CLR,,0.00,WeatherDisplay:10.37,2013-01-05 22:35:00,
2013-01-05 17:40:00,36.5,25.1,30.22,South,181,0.0,0.0,63,0.00,CLR,,0.00,WeatherDisplay:10.37,2013-01-05 22:40:00,
2013-01-05 17:45:00,36.5,25.1,30.22,South,181,0.0,0.0,63,0.00,CLR,CLR,0.00,WeatherDisplay:10.37,2013-01-05 22:45:00,
2013-01-05 17:50:00,36.5,25.1,30.22,South,181,0.0,0.0,63,0.00,CLR,,0.00,WeatherDisplay:10.37,2013-01-05 22:50:00,
2013-01-05 17:55:00,36.5,25.1,30.22,South,181,0.0,0.0,63,0.00,CLR,CLR,0.00,WeatherDisplay:10.37,2013-01-05 22:55:00,
2013-01-05 18:00:00,36.5,25.1,30.22,South,181,0.0,0.0,63,0.00,CLR,,0.00,WeatherDisplay:10.37,2013-01-05 23:00:00,
2013-01-05 18:05:00,35.2,23.9,30.22,South,181,0.0,0.0,63,0.00,CLR,,0.00,WeatherDisplay:10.37,2013-01-05 23:05:00,
2013-01-05 18:10:00,34.9,23.6,30.22,South,182,0.0,0.0,63,0.00,CLR,CLR,0.00,WeatherDisplay:10.37,2013-01-05 23:10:00,
2013-01-05 18:15:00,34.9,21.2,30.21,SSW,202,0.0,0.0,57,0.00,CLR,,0.00,WeatherDisplay:10.37,2013-01-05 23:15:00,
2013-01-05 18:20:00,34.5,20.8,30.21,SSW,202,0.0,0.0,57,0.00,CLR,,0.00,WeatherDisplay:10.37,2013-01-05 23:20:00,
2013-01-05 18:25:00,34.5,20.8,30.20,SSW,202,0.0,0.0,57,0.00,CLR,CLR,0.00,WeatherDisplay:10.37,2013-01-05 23:25:00,
2013-01-05 18:30:00,34.3,21.1,30.19,SSW,202,0.0,0.0,58,0.00,CLR,,0.00,WeatherDisplay:10.37,2013-01-05 23:30:00,
2013-01-05 18:35:00,34.3,21.1,30.20,SSW,202,0.0,0.0,58,0.00,CLR,CLR,0.00,WeatherDisplay:10.37,2013-01-05 23:35:00,
2013-01-05 18:40:00,34.3,21.1,30.20,SSW,202,0.0,0.0,58,0.00,CLR,,0.00,WeatherDisplay:10.37,2013-01-05 23:40:00,
2013-01-05 18:45:00,34.3,21.5,30.21,SSW,202,0.0,0.0,59,0.00,CLR,,0.00,WeatherDisplay:10.37,2013-01-05 23:45:00,
2013-01-05 18:50:00,34.3,21.5,30.20,SSW,202,0.0,0.0,59,0.00,CLR,CLR,0.00,WeatherDisplay:10.37,2013-01-05 23:50:00,
2013-01-05 18:55:00,34.3,21.5,30.21,SSW,202,0.0,0.0,59,0.00,CLR,CLR,0.00,WeatherDisplay:10.37,2013-01-05 23:55:00,
2013-01-05 19:00:00,34.3,21.9,30.21,SSW,202,0.0,0.0,60,0.00,CLR,CLR,0.00,WeatherDisplay:10.37,2013-01-06 00:00:00,
2013-01-05 19:05:00,34.3,21.9,30.20,SSW,202,0.0,0.0,60,0.00,CLR,CLR,0.00,WeatherDisplay:10.37,2013-01-06 00:05:00,
2013-01-05 19:10:00,34.3,21.9,30.20,SSW,202,0.0,0.0,60,0.00,CLR,,0.00,WeatherDisplay:10.37,2013-01-06 00:10:00,
2013-01-05 19:15:00,34.3,22.3,30.21,SSW,207,0.0,0.0,61,0.00,CLR,CLR,0.00,WeatherDisplay:10.37,2013-01-06 00:15:00,
2013-01-05 19:20:00,34.3,22.3,30.21,SW,225,0.0,0.0,61,0.00,CLR,,0.00,WeatherDisplay:10.37,2013-01-06 00:20:00,
2013-01-05 19:25:00,34.3,22.3,30.21,SW,225,0.0,0.0,61,0.00,CLR,,0.00,WeatherDisplay:10.37,2013-01-06 00:25:00,
2013-01-05 19:29:00,34.5,22.4,30.19,SW,225,0.0,0.0,61,0.00,CLR,,0.00,WeatherDisplay:10.37,2013-01-06 00:29:00,
2013-01-05 19:35:00,34.5,22.8,30.21,SW,225,0.0,0.0,62,0.00,CLR,,0.00,WeatherDisplay:10.37,2013-01-06 00:35:00,
2013-01-05 19:40:00,34.7,23.0,30.21,SW,225,0.0,0.0,62,0.00,CLR,,0.00,WeatherDisplay:10.37,2013-01-06 00:40:00,
2013-01-05 19:45:00,34.7,23.0,30.21,SW,225,0.0,0.0,62,0.00,CLR,,0.00,WeatherDisplay:10.37,2013-01-06 00:45:00,
2013-01-05 19:50:00,34.7,23.0,30.20,SW,225,0.0,0.0,62,0.00,CLR,CLR,0.00,WeatherDisplay:10.37,2013-01-06 00:50:00,
2013-01-05 19:55:00,34.7,23.0,30.19,SW,225,0.0,0.0,62,0.00,CLR,,0.00,WeatherDisplay:10.37,2013-01-06 00:55:00,
2013-01-05 20:00:00,34.9,23.6,30.20,SW,225,0.0,0.0,63,0.00,CLR,,0.00,WeatherDisplay:10.37,2013-01-06 01:00:00,
2013-01-05 20:05:00,34.9,23.6,30.20,SW,225,3.0,4.0,63,0.00,CLR,CLR,0.00,WeatherDisplay:10.37,2013-01-06 01:05:00,
2013-01-05 20:10:00,35.2,23.9,30.20,SW,225,0.0,0.0,63,0.00,CLR,,0.00,WeatherDisplay:10.37,2013-01-06 01:10:00,
2013-01-05 20:15:00,35.2,23.9,30.20,SW,225,0.0,0.0,63,0.00,CLR,CLR,0.00,WeatherDisplay:10.37,2013-01-06 01:15:00,
2013-01-05 20:20:00,35.4,23.7,30.19,SW,225,0.0,0.0,62,0.00,CLR,,0.00,WeatherDisplay:10.37,2013-01-06 01:20:00,
2013-01-05 20:25:00,35.6,23.9,30.19,SW,225,0.0,0.0,62,0.00,CLR,,0.00,WeatherDisplay:10.37,2013-01-06 01:25:00,
2013-01-05 20:30:00,35.8,24.0,30.19,SW,225,0.0,0.0,62,0.00,CLR,,0.00,WeatherDisplay:10.37,2013-01-06 01:30:00,
2013-01-05 20:34:00,36.0,24.2,30.19,WSW,248,0.0,0.0,62,0.00,CLR,,0.00,WeatherDisplay:10.37,2013-01-06 01:34:00,
2013-01-05 20:39:00,36.1,24.4,30.19,WSW,248,0.0,0.0,62,0.00,CLR,,0.00,WeatherDisplay:10.37,2013-01-06 01:39:00,
2013-01-05 20:45:00,36.1,24.4,30.19,South,180,0.0,0.0,62,0.00,CLR,,0.00,WeatherDisplay:10.37,2013-01-06 01:45:00,
2013-01-05 20:50:00,36.3,24.1,30.18,South,180,0.0,0.0,61,0.00,CLR,,0.00,WeatherDisplay:10.37,2013-01-06 01:50:00,
2013-01-05 20:55:00,37.0,24.8,30.18,SSE,167,5.0,5.0,61,0.00,CLR,CLR,0.00,WeatherDisplay:10.37,2013-01-06 01:55:00,
2013-01-05 21:00:00,37.2,25.0,30.18,SSE,160,5.0,6.0,61,0.00,CLR,CLR,0.00,WeatherDisplay:10.37,2013-01-06 02:00:00,
2013-01-05 21:05:00,37.2,25.0,30.18,SSE,158,5.6,5.8,61,0.00,CLR,,0.00,WeatherDisplay:10.37,2013-01-06 02:05:00,
2013-01-05 21:10:00,37.2,25.0,30.18,SSE,158,5.6,5.8,61,0.00,CLR,,0.00,WeatherDisplay:10.37,2013-01-06 02:10:00,
2013-01-05 21:15:00,38.8,26.5,30.18,SSE,158,6.0,6.0,61,0.00,CLR,CLR,0.00,WeatherDisplay:10.37,2013-01-06 02:15:00,
2013-01-05 21:20:00,39.4,25.4,30.18,South,180,5.6,5.8,57,0.00,CLR,,0.00,WeatherDisplay:10.37,2013-01-06 02:20:00,
2013-01-05 21:25:00,39.4,25.4,30.19,South,180,5.6,5.8,57,0.00,CLR,,0.00,WeatherDisplay:10.37,2013-01-06 02:25:00,
2013-01-05 21:30:00,39.4,25.4,30.19,South,180,6.0,6.0,57,0.00,CLR,CLR,0.00,WeatherDisplay:10.37,2013-01-06 02:30:00,
2013-01-05 21:35:00,39.4,25.4,30.18,South,180,6.0,6.0,57,0.00,CLR,CLR,0.00,WeatherDisplay:10.37,2013-01-06 02:35:00,
2013-01-05 21:40:00,39.9,25.0,30.19,SSW,202,5.4,5.8,55,0.00,CLR,,0.00,WeatherDisplay:10.37,2013-01-06 02:40:00,
2013-01-05 21:45:00,39.9,25.0,30.19,South,180,4.7,4.7,55,0.00,CLR,,0.00,WeatherDisplay:10.37,2013-01-06 02:45:00,
2013-01-05 21:50:00,39.9,25.0,30.18,South,180,4.7,4.7,55,0.00,CLR,,0.00,WeatherDisplay:10.37,2013-01-06 02:50:00,
2013-01-05 21:55:00,39.9,25.0,30.18,South,180,5.0,5.0,55,0.00,CLR,CLR,0.00,WeatherDisplay:10.37,2013-01-06 02:55:00,
2013-01-05 22:00:00,39.9,25.0,30.18,South,189,5.0,5.0,55,0.00,CLR,CLR,0.00,WeatherDisplay:10.37,2013-01-06 03:00:00,
2013-01-05 22:05:00,39.9,25.0,30.18,SSW,204,3.0,7.0,55,0.00,CLR,CLR,0.00,WeatherDisplay:10.37,2013-01-06 03:05:00,
2013-01-05 22:10:00,39.9,25.0,30.16,South,180,1.6,2.5,55,0.00,CLR,,0.00,WeatherDisplay:10.37,2013-01-06 03:10:00,
2013-01-05 22:15:00,39.9,25.0,30.16,South,180,2.0,2.0,55,0.00,CLR,CLR,0.00,WeatherDisplay:10.37,2013-01-06 03:15:00,
2013-01-05 22:20:00,39.9,25.0,30.15,South,180,12.0,12.0,55,0.00,CLR,CLR,0.00,WeatherDisplay:10.37,2013-01-06 03:20:00,
2013-01-05 22:25:00,39.9,25.0,30.16,SSW,202,5.6,5.8,55,0.00,CLR,,0.00,WeatherDisplay:10.37,2013-01-06 03:25:00,
2013-01-05 22:30:00,39.9,25.0,30.16,SSE,158,6.0,6.0,55,0.00,CLR,,0.00,WeatherDisplay:10.37,2013-01-06 03:30:00,
2013-01-05 22:35:00,39.7,24.9,30.16,South,180,6.7,6.9,55,0.00,CLR,,0.00,WeatherDisplay:10.37,2013-01-06 03:35:00,
2013-01-05 22:40:00,39.7,24.9,30.16,South,176,6.0,7.0,55,0.00,CLR,CLR,0.00,WeatherDisplay:10.37,2013-01-06 03:40:00,
2013-01-05 22:45:00,39.7,24.9,30.15,South,180,1.0,2.0,55,0.00,CLR,CLR,0.00,WeatherDisplay:10.37,2013-01-06 03:45:00,
2013-01-05 22:50:00,39.7,24.9,30.15,South,180,1.6,1.6,55,0.00,CLR,,0.00,WeatherDisplay:10.37,2013-01-06 03:50:00,
2013-01-05 22:55:00,39.7,24.9,30.16,South,180,1.6,1.6,55,0.00,CLR,,0.00,WeatherDisplay:10.37,2013-01-06 03:55:00,
2013-01-05 23:00:00,39.7,24.9,30.17,South,180,1.0,2.0,55,0.00,CLR,CLR,0.00,WeatherDisplay:10.37,2013-01-06 04:00:00,
2013-01-05 23:05:00,39.7,24.9,30.17,South,181,1.6,1.6,55,0.00,CLR,,0.00,WeatherDisplay:10.37,2013-01-06 04:05:00,
2013-01-05 23:10:00,39.7,24.9,30.16,South,181,1.6,1.6,55,0.00,CLR,,0.00,WeatherDisplay:10.37,2013-01-06 04:10:00,
2013-01-05 23:15:00,39.7,24.9,30.16,South,181,1.0,2.0,55,0.00,CLR,CLR,0.00,WeatherDisplay:10.37,2013-01-06 04:15:00,
2013-01-05 23:20:00,39.7,24.9,30.17,South,181,1.6,1.6,55,0.00,CLR,,0.00,WeatherDisplay:10.37,2013-01-06 04:20:00,
2013-01-05 23:25:00,39.6,24.7,30.16,South,181,1.6,1.6,55,0.00,CLR,,0.00,WeatherDisplay:10.37,2013-01-06 04:25:00,
2013-01-05 23:30:00,39.7,24.9,30.14,SSE,158,4.7,5.8,55,0.00,CLR,,0.00,WeatherDisplay:10.37,2013-01-06 04:30:00,
2013-01-05 23:35:00,39.7,25.3,30.16,SSE,167,5.0,5.0,56,0.00,CLR,CLR,0.00,WeatherDisplay:10.37,2013-01-06 04:35:00,
2013-01-05 23:40:00,39.7,25.3,30.16,SSW,202,7.6,8.1,56,0.00,CLR,,0.00,WeatherDisplay:10.37,2013-01-06 04:40:00,
2013-01-05 23:45:00,39.7,25.3,30.15,SSW,202,8.0,8.0,56,0.00,CLR,CLR,0.00,WeatherDisplay:10.37,2013-01-06 04:45:00,
2013-01-05 23:50:00,39.7,25.3,30.14,South,180,7.6,8.1,56,0.00,CLR,,0.00,WeatherDisplay:10.37,2013-01-06 04:50:00,
2013-01-05 23:55:00,39.7,25.3,30.14,South,191,3.0,4.0,56,0.00,CLR,CLR,0.00,WeatherDisplay:10.37,2013-01-06 04:55:00,